createdAt,value
2019-03-21T00:00:17.506Z,19.03
2019-03-21T00:02:46.983Z,19.33
2019-03-21T00:05:16.780Z,19.97
2019-03-21T00:07:46.182Z,18.87
2019-03-21T00:10:49.618Z,17.57
2019-03-21T00:13:19.991Z,18.13
2019-03-21T00:15:51.404Z,18.97
2019-03-21T00:18:20.993Z,18.17
2019-03-21T00:20:51.130Z,19.17
2019-03-21T00:23:22.579Z,18.17
2019-03-21T00:25:52.214Z,18.07
2019-03-21T00:28:22.542Z,21.87
2019-03-21T00:30:52.351Z,22.93
2019-03-21T00:33:22.703Z,23.67
2019-03-21T00:35:52.247Z,21.77
2019-03-21T00:38:22.570Z,18.17
2019-03-21T00:40:52.960Z,17.93
2019-03-21T00:43:23.283Z,18.00
2019-03-21T00:45:53.747Z,17.73
2019-03-21T00:48:24.075Z,17.83
2019-03-21T00:50:53.621Z,18.87
2019-03-21T00:53:23.780Z,18.67
2019-03-21T00:55:54.223Z,18.13
2019-03-21T00:58:24.633Z,17.80
2019-03-21T01:00:54.782Z,18.73
2019-03-21T01:03:24.221Z,17.77
2019-03-21T01:05:55.221Z,17.83
2019-03-21T01:08:24.743Z,17.07
2019-03-21T01:10:57.116Z,18.10
2019-03-21T01:13:30.125Z,17.93
2019-03-21T01:16:00.453Z,18.20
2019-03-21T01:18:30.686Z,26.30
2019-03-21T01:21:00.245Z,24.87
2019-03-21T01:23:29.648Z,27.33
2019-03-21T01:25:59.373Z,19.43
2019-03-21T01:28:28.860Z,18.07
2019-03-21T01:30:58.988Z,17.23
2019-03-21T01:33:29.193Z,17.47
2019-03-21T01:35:58.715Z,18.57
2019-03-21T01:38:28.920Z,19.43
2019-03-21T01:40:59.245Z,19.13
2019-03-21T01:43:29.633Z,18.57
2019-03-21T01:45:59.961Z,19.27
2019-03-21T01:48:29.479Z,19.27
2019-03-21T01:50:59.368Z,19.07
2019-03-21T01:53:29.505Z,18.33
2019-03-21T01:55:59.725Z,17.97
2019-03-21T01:58:30.015Z,19.47
2019-03-21T02:01:00.368Z,20.23
2019-03-21T02:03:30.654Z,19.47
2019-03-21T02:06:00.275Z,19.53
2019-03-21T02:08:29.700Z,19.67
2019-03-21T02:10:59.964Z,21.17
2019-03-21T02:13:31.132Z,20.27
2019-03-21T02:16:01.443Z,21.87
2019-03-21T02:18:31.777Z,21.07
2019-03-21T02:21:02.031Z,21.20
2019-03-21T02:23:33.451Z,21.13
2019-03-21T02:26:03.740Z,20.67
2019-03-21T02:28:33.937Z,20.33
2019-03-21T02:31:04.304Z,19.57
2019-03-21T02:33:34.736Z,19.30
2019-03-21T02:36:05.144Z,19.37
2019-03-21T02:38:46.763Z,19.07
2019-03-21T02:41:25.513Z,19.03
2019-03-21T02:43:55.076Z,18.23
2019-03-21T02:46:25.315Z,17.57
2019-03-21T02:48:55.618Z,17.73
2019-03-21T02:51:27.420Z,18.23
2019-03-21T02:53:56.952Z,17.83
2019-03-21T02:56:26.579Z,16.97
2019-03-21T02:58:56.185Z,18.13
2019-03-21T03:01:26.359Z,17.93
2019-03-21T03:03:56.686Z,17.47
2019-03-21T03:06:27.054Z,17.93
2019-03-21T03:08:57.306Z,17.37
2019-03-21T03:11:27.532Z,17.93
2019-03-21T03:13:58.498Z,18.50
2019-03-21T03:16:28.819Z,18.17
2019-03-21T03:19:00.309Z,17.93
2019-03-21T03:21:30.495Z,17.17
2019-03-21T03:24:00.147Z,18.00
2019-03-21T03:26:30.332Z,17.57
2019-03-21T03:29:00.517Z,18.10
2019-03-21T03:31:30.072Z,17.33
2019-03-21T03:33:59.577Z,17.20
2019-03-21T03:36:30.066Z,17.03
2019-03-21T03:39:00.292Z,16.63
2019-03-21T03:41:30.697Z,18.20
2019-03-21T03:44:00.994Z,17.47
2019-03-21T03:46:31.279Z,17.93
2019-03-21T03:49:01.646Z,17.73
2019-03-21T03:51:31.908Z,16.77
2019-03-21T03:54:02.173Z,17.23
2019-03-21T03:56:32.575Z,17.47
2019-03-21T03:59:02.344Z,18.40
2019-03-21T04:01:32.598Z,17.47
2019-03-21T04:04:02.980Z,18.63
2019-03-21T04:06:32.613Z,18.50
2019-03-21T04:09:02.082Z,19.00
2019-03-21T04:11:32.423Z,18.77
2019-03-21T04:14:01.930Z,19.37
2019-03-21T04:16:32.119Z,18.43
2019-03-21T04:19:01.689Z,18.87
2019-03-21T04:21:31.798Z,18.23
2019-03-21T04:24:02.327Z,18.27
2019-03-21T04:26:32.780Z,19.10
2019-03-21T04:29:02.354Z,17.17
2019-03-21T04:31:32.585Z,19.13
2019-03-21T04:34:02.837Z,18.93
2019-03-21T04:36:33.020Z,19.70
2019-03-21T04:39:04.458Z,21.13
2019-03-21T04:41:34.720Z,22.33
2019-03-21T04:44:05.018Z,22.10
2019-03-21T04:46:35.280Z,23.10
2019-03-21T04:49:05.580Z,25.30
2019-03-21T04:51:35.805Z,24.70
2019-03-21T04:54:05.333Z,25.07
2019-03-21T04:56:34.775Z,25.67
2019-03-21T04:59:04.366Z,26.50
2019-03-21T05:01:34.445Z,25.60
2019-03-21T05:04:04.989Z,25.67
2019-03-21T05:06:34.478Z,26.57
2019-03-21T05:09:05.535Z,26.17
2019-03-21T05:11:35.729Z,26.97
2019-03-21T05:14:06.007Z,27.80
2019-03-21T05:16:36.218Z,27.77
2019-03-21T05:19:06.529Z,29.40
2019-03-21T05:21:36.706Z,28.30
2019-03-21T05:24:06.241Z,28.30
2019-03-21T05:26:36.431Z,29.20
2019-03-21T05:29:06.666Z,29.40
2019-03-21T05:31:36.271Z,29.07
2019-03-21T05:34:05.729Z,30.30
2019-03-21T05:36:35.868Z,30.50
2019-03-21T05:39:09.621Z,29.03
2019-03-21T05:41:39.802Z,29.93
2019-03-21T05:44:17.498Z,28.77
2019-03-21T05:46:47.790Z,30.83
2019-03-21T05:49:18.009Z,29.67
2019-03-21T05:51:47.507Z,29.67
2019-03-21T05:54:16.897Z,30.50
2019-03-21T05:56:46.296Z,30.47
2019-03-21T05:59:16.677Z,30.97
2019-03-21T06:01:46.187Z,31.70
2019-03-21T06:04:15.607Z,30.80
2019-03-21T06:06:54.206Z,32.03
2019-03-21T06:09:24.466Z,32.77
2019-03-21T06:11:57.082Z,33.37
2019-03-21T06:14:26.957Z,34.20
2019-03-21T06:16:56.479Z,34.57
2019-03-21T06:20:04.003Z,34.77
2019-03-21T06:22:48.148Z,34.87
2019-03-21T06:25:26.912Z,34.33
2019-03-21T06:27:56.547Z,34.57
2019-03-21T06:30:26.853Z,35.50
2019-03-21T06:32:56.383Z,36.83
2019-03-21T06:35:26.521Z,36.37
2019-03-21T06:37:56.985Z,36.93
2019-03-21T06:40:27.401Z,36.73
2019-03-21T06:42:57.678Z,36.83
2019-03-21T06:45:27.950Z,37.43
2019-03-21T06:47:57.437Z,36.50
2019-03-21T06:50:26.883Z,37.53
2019-03-21T06:52:56.291Z,37.67
2019-03-21T06:55:25.828Z,37.27
2019-03-21T06:57:55.950Z,36.43
2019-03-21T07:00:25.483Z,35.20
2019-03-21T07:02:55.611Z,37.03
2019-03-21T07:05:26.856Z,37.57
2019-03-21T07:07:56.563Z,36.93
2019-03-21T07:10:26.761Z,36.27
2019-03-21T07:12:56.234Z,37.90
2019-03-21T07:15:26.374Z,37.40
2019-03-21T07:17:56.576Z,36.80
2019-03-21T07:20:26.755Z,36.50
2019-03-21T07:22:56.218Z,36.77
2019-03-21T07:25:26.464Z,36.03
2019-03-21T07:27:55.989Z,34.30
2019-03-21T07:30:26.098Z,33.03
2019-03-21T07:32:56.262Z,37.23
2019-03-21T07:35:26.490Z,38.40
2019-03-21T07:37:56.752Z,36.00
2019-03-21T07:40:27.004Z,36.40
2019-03-21T07:42:56.522Z,35.87
2019-03-21T07:45:26.620Z,35.73
2019-03-21T07:47:56.778Z,37.00
2019-03-21T07:50:26.989Z,36.87
2019-03-21T07:52:56.489Z,37.57
2019-03-21T07:55:26.305Z,38.27
2019-03-21T07:57:55.955Z,36.23
2019-03-21T08:00:26.399Z,36.30
2019-03-21T08:02:56.527Z,36.20
2019-03-21T08:05:26.736Z,34.53
2019-03-21T08:07:56.327Z,34.73
2019-03-21T08:10:26.381Z,34.03
2019-03-21T08:12:56.599Z,34.10
2019-03-21T08:15:26.819Z,33.27
2019-03-21T08:17:56.354Z,32.40
2019-03-21T08:20:26.462Z,32.00
2019-03-21T08:22:56.663Z,31.57
2019-03-21T08:25:26.143Z,31.10
2019-03-21T08:27:56.354Z,28.77
2019-03-21T08:30:32.894Z,31.67
2019-03-21T08:33:03.156Z,30.87
2019-03-21T08:35:32.856Z,29.70
2019-03-21T08:38:02.319Z,29.40
2019-03-21T08:40:32.492Z,31.00
2019-03-21T08:43:02.784Z,30.00
2019-03-21T08:45:32.311Z,29.67
2019-03-21T08:48:01.722Z,29.47
2019-03-21T08:50:31.875Z,30.17
2019-03-21T08:53:02.095Z,30.40
2019-03-21T08:55:31.730Z,29.53
2019-03-21T08:58:02.302Z,30.03
2019-03-21T09:00:34.525Z,29.37
2019-03-21T09:03:04.498Z,28.13
2019-03-21T09:05:34.069Z,27.27
2019-03-21T09:08:04.422Z,28.63
2019-03-21T09:10:34.678Z,28.07
2019-03-21T09:13:05.123Z,26.93
2019-03-21T09:15:35.366Z,26.77
2019-03-21T09:18:05.662Z,26.37
2019-03-21T09:20:35.838Z,25.80
2019-03-21T09:23:06.123Z,25.10
2019-03-21T09:25:36.410Z,25.70
2019-03-21T09:28:06.584Z,24.17
2019-03-21T09:30:36.011Z,25.00
2019-03-21T09:33:06.180Z,25.50
2019-03-21T09:35:35.694Z,25.03
2019-03-21T09:38:07.724Z,25.70
2019-03-21T09:40:37.291Z,26.43
2019-03-21T09:43:06.706Z,27.00
2019-03-21T09:45:37.958Z,28.37
2019-03-21T09:48:08.255Z,28.23
2019-03-21T09:50:38.524Z,27.67
2019-03-21T09:53:09.051Z,29.97
2019-03-21T09:55:38.683Z,29.97
2019-03-21T09:58:08.066Z,28.47
2019-03-21T10:00:38.392Z,29.87
2019-03-21T10:03:08.582Z,29.80
2019-03-21T10:05:38.093Z,29.87
2019-03-21T10:08:07.607Z,30.30
2019-03-21T10:10:37.763Z,30.97
2019-03-21T10:13:07.334Z,30.60
2019-03-21T10:15:37.476Z,30.00
2019-03-21T10:18:07.735Z,30.33
2019-03-21T10:20:37.919Z,29.00
2019-03-21T10:23:08.090Z,29.03
2019-03-21T10:25:38.239Z,28.47
2019-03-21T10:28:08.439Z,29.53
2019-03-21T10:30:39.009Z,29.60
2019-03-21T10:33:09.194Z,30.00
2019-03-21T10:35:38.699Z,30.00
2019-03-21T10:38:09.001Z,30.00
2019-03-21T10:40:39.990Z,28.30
2019-03-21T10:43:10.802Z,28.93
2019-03-21T10:45:42.302Z,27.93
2019-03-21T10:48:12.974Z,31.50
2019-03-21T10:50:44.346Z,30.47
2019-03-21T10:53:14.868Z,36.73
2019-03-21T10:55:44.474Z,28.97
2019-03-21T10:58:14.624Z,29.00
2019-03-21T11:00:44.206Z,27.67
2019-03-21T11:03:13.930Z,26.30
2019-03-21T11:05:44.116Z,26.57
2019-03-21T11:08:14.327Z,26.13
2019-03-21T11:10:47.117Z,26.07
2019-03-21T11:13:16.920Z,24.93
2019-03-21T11:15:47.200Z,25.13
2019-03-21T11:18:17.748Z,25.53
2019-03-21T11:20:47.944Z,26.53
2019-03-21T11:23:18.268Z,25.33
2019-03-21T11:25:47.907Z,25.27
2019-03-21T11:28:18.002Z,26.00
2019-03-21T11:30:48.422Z,26.53
2019-03-21T11:33:20.947Z,27.03
2019-03-21T11:35:50.492Z,25.80
2019-03-21T11:38:20.656Z,26.67
2019-03-21T11:40:50.953Z,26.33
2019-03-21T11:43:21.372Z,25.87
2019-03-21T11:45:51.818Z,24.93
2019-03-21T11:48:22.241Z,24.67
2019-03-21T11:50:52.471Z,24.60
2019-03-21T11:53:22.851Z,24.03
2019-03-21T11:55:52.653Z,23.43
2019-03-21T11:58:22.151Z,26.13
2019-03-21T12:00:52.276Z,24.37
2019-03-21T12:03:24.315Z,23.97
2019-03-21T12:05:54.660Z,25.13
2019-03-21T12:08:24.264Z,24.53
2019-03-21T12:10:54.451Z,23.43
2019-03-21T12:13:25.761Z,23.93
2019-03-21T12:15:55.971Z,22.77
2019-03-21T12:18:26.243Z,22.53
2019-03-21T12:20:56.514Z,22.67
2019-03-21T12:23:26.079Z,22.00
2019-03-21T12:25:56.226Z,22.70
2019-03-21T12:28:26.462Z,22.73
2019-03-21T12:30:56.714Z,21.57
2019-03-21T12:33:26.234Z,21.47
2019-03-21T12:35:56.514Z,21.90
2019-03-21T12:38:26.883Z,20.63
2019-03-21T12:40:57.206Z,21.60
2019-03-21T12:43:29.668Z,20.70
2019-03-21T12:46:00.257Z,21.27
2019-03-21T12:48:30.829Z,20.67
2019-03-21T12:51:01.055Z,20.63
2019-03-21T12:53:31.322Z,21.07
2019-03-21T12:56:00.952Z,20.40
2019-03-21T12:58:30.529Z,20.70
2019-03-21T13:01:00.794Z,22.07
2019-03-21T13:03:31.039Z,21.90
2019-03-21T13:06:00.604Z,20.37
2019-03-21T13:08:33.975Z,21.53
2019-03-21T13:11:02.116Z,21.17
2019-03-21T13:13:32.246Z,22.67
2019-03-21T13:16:02.873Z,22.87
2019-03-21T13:18:34.110Z,22.37
2019-03-21T13:21:04.410Z,23.03
2019-03-21T13:23:33.972Z,22.97
2019-03-21T13:26:03.533Z,21.87
2019-03-21T13:28:33.744Z,21.23
2019-03-21T13:31:03.352Z,20.80
2019-03-21T13:33:32.952Z,20.70
2019-03-21T13:36:02.518Z,22.27
2019-03-21T13:38:32.781Z,21.17
2019-03-21T13:41:02.358Z,20.90
2019-03-21T13:43:32.557Z,21.60
2019-03-21T13:46:02.933Z,21.03
2019-03-21T13:48:33.351Z,27.83
2019-03-21T13:51:03.709Z,25.77
2019-03-21T13:53:34.059Z,21.03
2019-03-21T13:56:04.403Z,22.00
2019-03-21T13:58:34.760Z,20.37
2019-03-21T14:01:04.371Z,20.50
2019-03-21T14:03:35.135Z,21.03
2019-03-21T14:06:04.742Z,20.33
2019-03-21T14:08:34.256Z,19.00
2019-03-21T14:11:04.610Z,20.47
2019-03-21T14:13:34.996Z,20.60
2019-03-21T14:16:04.515Z,21.27
2019-03-21T14:18:34.750Z,21.57
2019-03-21T14:21:05.492Z,21.73
2019-03-21T14:23:43.259Z,21.07
2019-03-21T14:26:07.887Z,21.77
2019-03-21T14:28:38.330Z,21.20
2019-03-21T14:31:08.749Z,22.37
2019-03-21T14:33:38.719Z,22.43
2019-03-21T14:36:08.857Z,22.90
2019-03-21T14:38:39.098Z,22.23
2019-03-21T14:41:08.717Z,21.30
2019-03-21T14:43:38.979Z,22.40
2019-03-21T14:46:09.665Z,22.20
2019-03-21T14:48:40.081Z,23.03
2019-03-21T14:51:09.682Z,22.83
2019-03-21T14:53:39.908Z,24.00
2019-03-21T14:56:10.271Z,23.00
2019-03-21T14:58:40.750Z,23.97
2019-03-21T15:01:10.373Z,24.67
2019-03-21T15:03:40.835Z,24.40
2019-03-21T15:06:10.403Z,26.03
2019-03-21T15:08:40.735Z,25.87
2019-03-21T15:11:16.976Z,25.47
2019-03-21T15:13:42.953Z,26.47
2019-03-21T15:16:12.833Z,26.47
2019-03-21T15:18:43.151Z,27.17
2019-03-21T15:21:13.687Z,27.80
2019-03-21T15:23:44.002Z,27.30
2019-03-21T15:26:14.333Z,28.23
2019-03-21T15:28:44.727Z,34.87
2019-03-21T15:31:14.989Z,29.60
2019-03-21T15:33:44.522Z,29.13
2019-03-21T15:36:14.743Z,29.03
2019-03-21T15:38:45.247Z,28.33
2019-03-21T15:41:15.544Z,28.57
2019-03-21T15:43:45.118Z,29.80
2019-03-21T15:46:15.432Z,30.20
2019-03-21T15:48:45.972Z,30.67
2019-03-21T15:51:16.280Z,31.20
2019-03-21T15:53:54.533Z,29.63
2019-03-21T15:56:17.791Z,29.63
2019-03-21T15:58:48.338Z,32.47
2019-03-21T16:01:18.560Z,31.07
2019-03-21T16:03:50.008Z,31.10
2019-03-21T16:06:20.586Z,30.80
2019-03-21T16:08:53.921Z,28.07
2019-03-21T16:11:28.586Z,28.57
2019-03-21T16:13:58.826Z,28.57
2019-03-21T16:16:28.624Z,27.97
2019-03-21T16:18:58.187Z,24.83
2019-03-21T16:21:28.350Z,22.90
2019-03-21T16:24:04.995Z,23.20
2019-03-21T16:26:30.636Z,22.70
2019-03-21T16:29:00.174Z,18.70
2019-03-21T16:31:30.400Z,17.83
2019-03-21T16:34:00.706Z,17.77
2019-03-21T16:36:31.183Z,16.27
2019-03-21T16:39:01.447Z,16.57
2019-03-21T16:41:31.571Z,15.10
2019-03-21T16:44:01.752Z,15.13
2019-03-21T16:46:31.407Z,15.13
2019-03-21T16:49:01.504Z,15.70
2019-03-21T16:51:31.119Z,15.87
2019-03-21T16:54:01.195Z,16.50
2019-03-21T16:56:31.419Z,16.57
2019-03-21T16:59:00.933Z,17.07
2019-03-21T17:01:30.444Z,17.60
2019-03-21T17:04:00.853Z,18.27
2019-03-21T17:06:30.403Z,17.07
2019-03-21T17:09:00.692Z,16.87
2019-03-21T17:11:31.707Z,17.27
2019-03-21T17:14:02.263Z,16.73
2019-03-21T17:16:32.581Z,17.57
2019-03-21T17:19:02.817Z,17.67
2019-03-21T17:21:32.744Z,17.70
2019-03-21T17:24:02.225Z,18.47
2019-03-21T17:26:32.476Z,18.93
2019-03-21T17:29:02.046Z,19.20
2019-03-21T17:31:32.289Z,19.50
2019-03-21T17:34:03.958Z,21.00
2019-03-21T17:36:32.912Z,19.67
2019-03-21T17:39:05.086Z,20.17
2019-03-21T17:41:35.306Z,19.00
2019-03-21T17:44:05.786Z,20.30
2019-03-21T17:46:36.159Z,20.03
2019-03-21T17:49:07.518Z,19.90
2019-03-21T17:51:40.259Z,20.37
2019-03-21T17:54:10.510Z,21.03
2019-03-21T17:56:40.105Z,22.87
2019-03-21T17:59:10.263Z,21.37
2019-03-21T18:01:40.585Z,20.40
2019-03-21T18:04:11.324Z,20.73
2019-03-21T18:06:41.001Z,22.30
2019-03-21T18:09:11.257Z,21.97
2019-03-21T18:11:40.771Z,22.90
2019-03-21T18:14:10.960Z,22.10
2019-03-21T18:16:41.328Z,22.97
2019-03-21T18:19:10.855Z,22.83
2019-03-21T18:21:41.275Z,23.73
2019-03-21T18:24:10.821Z,23.43
2019-03-21T18:26:40.353Z,22.13
2019-03-21T18:29:09.915Z,22.27
2019-03-21T18:31:40.466Z,21.90
2019-03-21T18:34:09.887Z,22.73
2019-03-21T18:37:03.972Z,22.80
2019-03-21T18:39:37.900Z,22.07
2019-03-21T18:42:08.244Z,23.83
2019-03-21T18:45:09.795Z,22.20
2019-03-21T18:47:40.474Z,23.77
2019-03-21T18:50:10.600Z,23.03
2019-03-21T18:52:40.833Z,25.73
2019-03-21T18:55:10.950Z,24.60
2019-03-21T18:57:40.515Z,24.40
2019-03-21T19:00:11.512Z,20.67
2019-03-21T19:02:41.988Z,24.43
2019-03-21T19:05:12.529Z,24.07
2019-03-21T19:07:45.943Z,25.80
2019-03-21T19:10:16.944Z,24.67
2019-03-21T19:12:47.232Z,24.50
2019-03-21T19:15:16.935Z,25.10
2019-03-21T19:17:48.242Z,25.30
2019-03-21T19:20:18.924Z,24.80
2019-03-21T19:22:49.256Z,24.67
2019-03-21T19:25:20.083Z,25.77
2019-03-21T19:27:49.757Z,25.40
2019-03-21T19:30:19.355Z,26.20
2019-03-21T19:32:49.635Z,27.10
2019-03-21T19:35:19.931Z,26.47
2019-03-21T19:37:50.274Z,27.50
2019-03-21T19:40:21.220Z,26.67
2019-03-21T19:42:51.646Z,24.70
2019-03-21T19:45:22.586Z,26.80
2019-03-21T19:47:52.251Z,26.00
2019-03-21T19:50:23.321Z,26.33
2019-03-21T19:52:53.649Z,28.37
2019-03-21T19:55:30.749Z,27.30
2019-03-21T19:57:55.886Z,27.47
2019-03-21T20:00:25.531Z,25.97
2019-03-21T20:02:55.137Z,26.47
2019-03-21T20:05:24.607Z,26.67
2019-03-21T20:07:54.853Z,27.10
2019-03-21T20:10:24.827Z,25.93
2019-03-21T20:12:54.269Z,26.57
2019-03-21T20:15:25.360Z,25.50
2019-03-21T20:17:55.671Z,26.63
2019-03-21T20:20:25.972Z,26.83
2019-03-21T20:22:56.230Z,27.33
2019-03-21T20:25:25.759Z,26.90
2019-03-21T20:27:55.878Z,28.13
2019-03-21T20:30:25.472Z,27.35
2019-03-21T20:32:55.731Z,28.27
2019-03-21T20:35:26.057Z,27.87
2019-03-21T20:37:56.259Z,29.10
2019-03-21T20:40:25.794Z,28.17
2019-03-21T20:42:55.944Z,29.30
2019-03-21T20:45:26.278Z,32.87
2019-03-21T20:47:56.632Z,31.83
2019-03-21T20:50:26.987Z,31.50
2019-03-21T20:52:57.225Z,30.27
2019-03-21T20:55:27.448Z,29.97
2019-03-21T20:57:58.523Z,30.70
2019-03-21T21:00:28.042Z,28.30
2019-03-21T21:02:58.485Z,30.53
2019-03-21T21:05:28.210Z,31.53
2019-03-21T21:07:58.610Z,31.57
2019-03-21T21:10:33.610Z,30.63
2019-03-21T21:13:04.493Z,32.17
2019-03-21T21:15:33.937Z,31.87
2019-03-21T21:18:03.675Z,31.20
2019-03-21T21:20:33.879Z,30.63
2019-03-21T21:23:03.753Z,30.70
2019-03-21T21:25:34.475Z,32.83
2019-03-21T21:28:04.890Z,31.67
2019-03-21T21:30:34.584Z,29.03
2019-03-21T21:33:04.346Z,29.07
2019-03-21T21:35:34.535Z,30.37
2019-03-21T21:38:04.127Z,29.30
2019-03-21T21:40:34.139Z,30.17
2019-03-21T21:43:03.655Z,29.10
2019-03-21T21:45:33.726Z,30.23
2019-03-21T21:48:04.058Z,32.57
2019-03-21T21:50:34.283Z,32.23
2019-03-21T21:53:04.529Z,34.03
2019-03-21T21:55:34.093Z,30.30
2019-03-21T21:58:04.573Z,30.53
2019-03-21T22:00:34.706Z,30.57
2019-03-21T22:03:05.435Z,28.97
2019-03-21T22:05:35.053Z,28.90
2019-03-21T22:08:04.480Z,29.57
2019-03-21T22:10:35.162Z,30.03
2019-03-21T22:13:05.483Z,28.37
2019-03-21T22:15:35.729Z,28.40
2019-03-21T22:18:06.001Z,29.27
2019-03-21T22:20:36.190Z,30.03
2019-03-21T22:23:06.454Z,30.70
2019-03-21T22:25:36.248Z,29.53
2019-03-21T22:28:06.376Z,30.63
2019-03-21T22:30:36.019Z,30.37
2019-03-21T22:33:05.934Z,29.17
2019-03-21T22:35:36.045Z,28.93
2019-03-21T22:38:06.299Z,29.47
2019-03-21T22:40:36.894Z,28.67
2019-03-21T22:43:06.506Z,28.03
2019-03-21T22:45:36.017Z,28.40
2019-03-21T22:48:05.499Z,30.53
2019-03-21T22:50:35.755Z,29.73
2019-03-21T22:53:06.138Z,30.57
2019-03-21T22:55:36.463Z,34.63
2019-03-21T22:58:05.990Z,30.67
2019-03-21T23:00:44.555Z,29.00
2019-03-21T23:03:14.467Z,29.33
2019-03-21T23:05:44.665Z,30.13
2019-03-21T23:08:14.603Z,30.10
2019-03-21T23:10:45.192Z,29.90
2019-03-21T23:13:14.870Z,29.37
2019-03-21T23:15:44.421Z,29.37
2019-03-21T23:18:13.953Z,29.57
2019-03-21T23:20:43.383Z,29.17
2019-03-21T23:23:13.633Z,29.60
2019-03-21T23:25:43.901Z,28.70
2019-03-21T23:28:14.243Z,29.17
2019-03-21T23:30:43.795Z,29.87
2019-03-21T23:33:13.253Z,31.33
2019-03-21T23:35:42.802Z,29.43
2019-03-21T23:38:12.992Z,29.20
2019-03-21T23:40:42.600Z,30.17
2019-03-21T23:43:12.824Z,30.87
2019-03-21T23:45:42.503Z,30.20
2019-03-21T23:48:12.654Z,31.37
2019-03-21T23:50:42.239Z,30.80
2019-03-21T23:53:11.736Z,26.97
2019-03-21T23:55:42.233Z,25.13
2019-03-21T23:58:12.417Z,23.10
